Terminal Aerodrome Forecast
Issued by NWS

Home | Current Version | Previous Version | Text Only | Print | Product List | Glossary On
Versions: 1 2 3 4 5 6 7 8 9 10 11 12
072
FTUS45 KABQ 141737
TAFLVS
TAF
KLVS 141737Z 1418/1518 06012KT P6SM VCSH BKN060
     FM142100 12009KT P6SM SCT070
     FM150300 15006KT P6SM SKC
     FM150600 19008KT P6SM SKC=

USA.gov is the U.S. government's official web portal to all federal, state and local government web resources and services.